Back to Top

Language: 

My Weather Underground Personal Weather Station Historical Data with Graphs...

Delerius Weather Station Historical Data
Daily Summary for January 28, 2017 Units:  Both    English   Metric
« Previous Day
Next Day »
Daily Weekly Monthly Yearly Custom
  High: Low: Average:
Temperature: 45.4 °F /  7.4 °C 35.5 °F /  1.9 °C 39 °F /  3.9 °C
Dew Point: 41.6 °F /  5.3 °C 33.7 °F /  0.9 °C 37.4 °F /  3 °C
Humidity: 98 % 86 % 94 %
Wind Speed: 13.0 mph /  20.9 km/h - 3.4 mph /  5.5 km/h
Wind Gust: -999.0 mph /  -1607.7 km/h - -
Wind:- - South
Pressure: 29.82 in /  1009.7 hPa 29.66 in /  1004.3 hPa -
Precipitation: 0.11 in /  2.79 mm    
Historical Graphs
 
 
Tabular Data for January 28, 2017
Time Temperature Dew Point Pressure Wind Wind Speed Wind Gust Humidity Rainfall Rate (Hourly) solar Conditions
00:01 36.2 °F /  2.3 °C 35.4 °F /  1.9 °C 29.75 in /  1007.3 hPa East 1.0 mph /  1.6 km/h -999.0 mph /  -1607.7 km/h 97 % 0.01 in /  0.25 mm 0 W/m2
00:06 36.2 °F /  2.3 °C 35.4 °F /  1.9 °C 29.75 in /  1007.3 hPa East 1.0 mph /  1.6 km/h -999.0 mph /  -1607.7 km/h 97 % 0.01 in /  0.25 mm 0 W/m2
00:11 36.2 °F /  2.3 °C 35.4 °F /  1.9 °C 29.75 in /  1007.3 hPa East 1.0 mph /  1.6 km/h -999.0 mph /  -1607.7 km/h 97 % 0.00 in /  0 mm 0 W/m2
00:16 36.2 °F /  2.3 °C 35.4 °F /  1.9 °C 29.75 in /  1007.3 hPa East 1.0 mph /  1.6 km/h -999.0 mph /  -1607.7 km/h 97 % 0.00 in /  0 mm 0 W/m2
00:21 36.2 °F /  2.3 °C 35.4 °F /  1.9 °C 29.75 in /  1007.3 hPa East 1.0 mph /  1.6 km/h -999.0 mph /  -1607.7 km/h 97 % 0.00 in /  0 mm 0 W/m2
00:26 36.5 °F /  2.5 °C 35.7 °F /  2.1 °C 29.75 in /  1007.3 hPa SE 2.0 mph /  3.2 km/h -999.0 mph /  -1607.7 km/h 97 % 0.00 in /  0 mm 0 W/m2
00:31 36.5 °F /  2.5 °C 35.7 °F /  2.1 °C 29.75 in /  1007.3 hPa SE 2.0 mph /  3.2 km/h -999.0 mph /  -1607.7 km/h 97 % 0.00 in /  0 mm 0 W/m2
00:36 36.5 °F /  2.5 °C 35.7 °F /  2.1 °C 29.75 in /  1007.3 hPa SE 2.0 mph /  3.2 km/h -999.0 mph /  -1607.7 km/h 97 % 0.00 in /  0 mm 0 W/m2
00:41 36.6 °F /  2.6 °C 35.8 °F /  2.1 °C 29.74 in /  1007 hPa SE 1.0 mph /  1.6 km/h -999.0 mph /  -1607.7 km/h 97 % 0.00 in /  0 mm 0 W/m2
00:46 36.6 °F /  2.6 °C 35.8 °F /  2.1 °C 29.74 in /  1007 hPa SE 1.0 mph /  1.6 km/h -999.0 mph /  -1607.7 km/h 97 % 0.00 in /  0 mm 0 W/m2
00:51 36.6 °F /  2.6 °C 35.8 °F /  2.1 °C 29.74 in /  1007 hPa SE 1.0 mph /  1.6 km/h -999.0 mph /  -1607.7 km/h 97 % 0.00 in /  0 mm 0 W/m2
00:56 36.8 °F /  2.7 °C 36.0 °F /  2.2 °C 29.74 in /  1007 hPa ESE 4.0 mph /  6.4 km/h -999.0 mph /  -1607.7 km/h 97 % 0.00 in /  0 mm 0 W/m2
01:01 36.8 °F /  2.7 °C 36.0 °F /  2.2 °C 29.74 in /  1007 hPa ESE 4.0 mph /  6.4 km/h -999.0 mph /  -1607.7 km/h 97 % 0.00 in /  0 mm 0 W/m2
01:06 36.8 °F /  2.7 °C 36.0 °F /  2.2 °C 29.74 in /  1007 hPa ESE 4.0 mph /  6.4 km/h -999.0 mph /  -1607.7 km/h 97 % 0.00 in /  0 mm 0 W/m2
01:11 37.0 °F /  2.8 °C 36.2 °F /  2.3 °C 29.74 in /  1007 hPa ESE 4.0 mph /  6.4 km/h -999.0 mph /  -1607.7 km/h 97 % 0.00 in /  0 mm 0 W/m2
01:16 37.0 °F /  2.8 °C 36.2 °F /  2.3 °C 29.74 in /  1007 hPa ESE 4.0 mph /  6.4 km/h -999.0 mph /  -1607.7 km/h 97 % 0.00 in /  0 mm 0 W/m2
01:21 37.0 °F /  2.8 °C 36.2 °F /  2.3 °C 29.74 in /  1007 hPa ESE 4.0 mph /  6.4 km/h -999.0 mph /  -1607.7 km/h 97 % 0.00 in /  0 mm 0 W/m2
01:26 37.1 °F /  2.8 °C 36.3 °F /  2.4 °C 29.74 in /  1007 hPa ESE 4.0 mph /  6.4 km/h -999.0 mph /  -1607.7 km/h 97 % 0.00 in /  0 mm 0 W/m2
01:31 37.1 °F /  2.8 °C 36.3 °F /  2.4 °C 29.74 in /  1007 hPa ESE 4.0 mph /  6.4 km/h -999.0 mph /  -1607.7 km/h 97 % 0.00 in /  0 mm 0 W/m2
01:36 37.1 °F /  2.8 °C 36.3 °F /  2.4 °C 29.74 in /  1007 hPa ESE 4.0 mph /  6.4 km/h -999.0 mph /  -1607.7 km/h 97 % 0.00 in /  0 mm 0 W/m2
01:41 37.2 °F /  2.9 °C 36.4 °F /  2.4 °C 29.73 in /  1006.7 hPa SE 4.0 mph /  6.4 km/h -999.0 mph /  -1607.7 km/h 97 % 0.00 in /  0 mm 0 W/m2
01:46 37.2 °F /  2.9 °C 36.4 °F /  2.4 °C 29.73 in /  1006.7 hPa SE 4.0 mph /  6.4 km/h -999.0 mph /  -1607.7 km/h 97 % 0.00 in /  0 mm 0 W/m2
01:51 37.2 °F /  2.9 °C 36.4 °F /  2.4 °C 29.73 in /  1006.7 hPa SE 4.0 mph /  6.4 km/h -999.0 mph /  -1607.7 km/h 97 % 0.00 in /  0 mm 0 W/m2
01:56 37.2 °F /  2.9 °C 36.4 °F /  2.4 °C 29.73 in /  1006.7 hPa SE 4.0 mph /  6.4 km/h -999.0 mph /  -1607.7 km/h 97 % 0.00 in /  0 mm 0 W/m2
02:01 37.2 °F /  2.9 °C 36.4 °F /  2.4 °C 29.73 in /  1006.7 hPa SE 4.0 mph /  6.4 km/h -999.0 mph /  -1607.7 km/h 97 % 0.00 in /  0 mm 0 W/m2
02:06 37.2 °F /  2.9 °C 36.4 °F /  2.4 °C 29.73 in /  1006.7 hPa SE 4.0 mph /  6.4 km/h -999.0 mph /  -1607.7 km/h 97 % 0.00 in /  0 mm 0 W/m2
02:11 37.2 °F /  2.9 °C 36.4 °F /  2.4 °C 29.73 in /  1006.7 hPa SE 3.0 mph /  4.8 km/h -999.0 mph /  -1607.7 km/h 97 % 0.00 in /  0 mm 0 W/m2
02:16 37.2 °F /  2.9 °C 36.4 °F /  2.4 °C 29.73 in /  1006.7 hPa SE 3.0 mph /  4.8 km/h -999.0 mph /  -1607.7 km/h 97 % 0.00 in /  0 mm 0 W/m2
02:21 37.2 °F /  2.9 °C 36.4 °F /  2.4 °C 29.73 in /  1006.7 hPa SE 3.0 mph /  4.8 km/h -999.0 mph /  -1607.7 km/h 97 % 0.00 in /  0 mm 0 W/m2
02:26 37.3 °F /  2.9 °C 36.5 °F /  2.5 °C 29.72 in /  1006.3 hPa SE 4.0 mph /  6.4 km/h -999.0 mph /  -1607.7 km/h 97 % 0.01 in /  0.25 mm 0 W/m2
02:31 37.3 °F /  2.9 °C 36.5 °F /  2.5 °C 29.72 in /  1006.3 hPa SE 4.0 mph /  6.4 km/h -999.0 mph /  -1607.7 km/h 97 % 0.01 in /  0.25 mm 0 W/m2
02:36 37.3 °F /  2.9 °C 36.5 °F /  2.5 °C 29.72 in /  1006.3 hPa SE 4.0 mph /  6.4 km/h -999.0 mph /  -1607.7 km/h 97 % 0.01 in /  0.25 mm 0 W/m2
02:41 37.3 °F /  2.9 °C 36.5 °F /  2.5 °C 29.72 in /  1006.3 hPa ESE 4.0 mph /  6.4 km/h -999.0 mph /  -1607.7 km/h 97 % 0.01 in /  0.25 mm 0 W/m2
02:46 37.3 °F /  2.9 °C 36.5 °F /  2.5 °C 29.72 in /  1006.3 hPa ESE 4.0 mph /  6.4 km/h -999.0 mph /  -1607.7 km/h 97 % 0.01 in /  0.25 mm 0 W/m2
02:51 37.3 °F /  2.9 °C 36.5 °F /  2.5 °C 29.72 in /  1006.3 hPa ESE 4.0 mph /  6.4 km/h -999.0 mph /  -1607.7 km/h 97 % 0.01 in /  0.25 mm 0 W/m2
02:56 37.3 °F /  2.9 °C 36.5 °F /  2.5 °C 29.72 in /  1006.3 hPa ESE 3.0 mph /  4.8 km/h -999.0 mph /  -1607.7 km/h 97 % 0.01 in /  0.25 mm 0 W/m2
03:01 37.3 °F /  2.9 °C 36.5 °F /  2.5 °C 29.72 in /  1006.3 hPa ESE 3.0 mph /  4.8 km/h -999.0 mph /  -1607.7 km/h 97 % 0.01 in /  0.25 mm 0 W/m2
03:06 37.3 °F /  2.9 °C 36.5 °F /  2.5 °C 29.72 in /  1006.3 hPa ESE 3.0 mph /  4.8 km/h -999.0 mph /  -1607.7 km/h 97 % 0.01 in /  0.25 mm 0 W/m2
03:11 37.3 °F /  2.9 °C 36.5 °F /  2.5 °C 29.72 in /  1006.3 hPa SE 2.0 mph /  3.2 km/h -999.0 mph /  -1607.7 km/h 97 % 0.01 in /  0.25 mm 0 W/m2
03:16 37.3 °F /  2.9 °C 36.5 °F /  2.5 °C 29.72 in /  1006.3 hPa SE 2.0 mph /  3.2 km/h -999.0 mph /  -1607.7 km/h 97 % 0.01 in /  0.25 mm 0 W/m2
03:21 37.3 °F /  2.9 °C 36.5 °F /  2.5 °C 29.72 in /  1006.3 hPa SE 2.0 mph /  3.2 km/h -999.0 mph /  -1607.7 km/h 97 % 0.01 in /  0.25 mm 0 W/m2
03:26 37.2 °F /  2.9 °C 36.4 °F /  2.4 °C 29.71 in /  1006 hPa ESE 2.0 mph /  3.2 km/h -999.0 mph /  -1607.7 km/h 97 % 0.00 in /  0 mm 0 W/m2
03:31 37.2 °F /  2.9 °C 36.4 °F /  2.4 °C 29.71 in /  1006 hPa ESE 2.0 mph /  3.2 km/h -999.0 mph /  -1607.7 km/h 97 % 0.00 in /  0 mm 0 W/m2
03:36 37.2 °F /  2.9 °C 36.4 °F /  2.4 °C 29.71 in /  1006 hPa ESE 2.0 mph /  3.2 km/h -999.0 mph /  -1607.7 km/h 97 % 0.00 in /  0 mm 0 W/m2
03:41 37.2 °F /  2.9 °C 36.4 °F /  2.4 °C 29.71 in /  1006 hPa ESE 1.0 mph /  1.6 km/h -999.0 mph /  -1607.7 km/h 97 % 0.00 in /  0 mm 0 W/m2
03:46 37.2 °F /  2.9 °C 36.4 °F /  2.4 °C 29.71 in /  1006 hPa ESE 1.0 mph /  1.6 km/h -999.0 mph /  -1607.7 km/h 97 % 0.00 in /  0 mm 0 W/m2
03:51 37.2 °F /  2.9 °C 36.4 °F /  2.4 °C 29.71 in /  1006 hPa ESE 1.0 mph /  1.6 km/h -999.0 mph /  -1607.7 km/h 97 % 0.00 in /  0 mm 0 W/m2
03:56 37.2 °F /  2.9 °C 36.7 °F /  2.6 °C 29.70 in /  1005.6 hPa Calm   -999.0 mph /  -1607.7 km/h 98 % 0.01 in /  0.25 mm 0 W/m2
04:01 37.2 °F /  2.9 °C 36.7 °F /  2.6 °C 29.70 in /  1005.6 hPa Calm   -999.0 mph /  -1607.7 km/h 98 % 0.01 in /  0.25 mm 0 W/m2
04:06 37.2 °F /  2.9 °C 36.7 °F /  2.6 °C 29.70 in /  1005.6 hPa Calm   -999.0 mph /  -1607.7 km/h 98 % 0.01 in /  0.25 mm 0 W/m2
04:11 37.2 °F /  2.9 °C 36.4 °F /  2.4 °C 29.70 in /  1005.6 hPa Calm   -999.0 mph /  -1607.7 km/h 97 % 0.01 in /  0.25 mm 0 W/m2
04:16 37.2 °F /  2.9 °C 36.4 °F /  2.4 °C 29.70 in /  1005.6 hPa Calm   -999.0 mph /  -1607.7 km/h 97 % 0.01 in /  0.25 mm 0 W/m2
04:21 37.2 °F /  2.9 °C 36.4 °F /  2.4 °C 29.70 in /  1005.6 hPa Calm   -999.0 mph /  -1607.7 km/h 97 % 0.01 in /  0.25 mm 0 W/m2
04:26 37.2 °F /  2.9 °C 36.4 °F /  2.4 °C 29.70 in /  1005.6 hPa East 1.0 mph /  1.6 km/h -999.0 mph /  -1607.7 km/h 97 % 0.02 in /  0.51 mm 0 W/m2
04:31 37.2 °F /  2.9 °C 36.4 °F /  2.4 °C 29.70 in /  1005.6 hPa East 1.0 mph /  1.6 km/h -999.0 mph /  -1607.7 km/h 97 % 0.02 in /  0.51 mm 0 W/m2
04:36 37.2 °F /  2.9 °C 36.4 °F /  2.4 °C 29.70 in /  1005.6 hPa East 1.0 mph /  1.6 km/h -999.0 mph /  -1607.7 km/h 97 % 0.02 in /  0.51 mm 0 W/m2
04:41 37.3 °F /  2.9 °C 36.8 °F /  2.7 °C 29.70 in /  1005.6 hPa East 1.0 mph /  1.6 km/h -999.0 mph /  -1607.7 km/h 98 % 0.02 in /  0.51 mm 0 W/m2
04:46 37.3 °F /  2.9 °C 36.8 °F /  2.7 °C 29.70 in /  1005.6 hPa East 1.0 mph /  1.6 km/h -999.0 mph /  -1607.7 km/h 98 % 0.02 in /  0.51 mm 0 W/m2
04:51 37.3 °F /  2.9 °C 36.8 °F /  2.7 °C 29.70 in /  1005.6 hPa East 1.0 mph /  1.6 km/h -999.0 mph /  -1607.7 km/h 98 % 0.02 in /  0.51 mm 0 W/m2
04:56 37.4 °F /  3 °C 36.6 °F /  2.6 °C 29.69 in /  1005.3 hPa ESE 1.0 mph /  1.6 km/h -999.0 mph /  -1607.7 km/h 97 % 0.02 in /  0.51 mm 0 W/m2
05:01 37.4 °F /  3 °C 36.6 °F /  2.6 °C 29.69 in /  1005.3 hPa ESE 1.0 mph /  1.6 km/h -999.0 mph /  -1607.7 km/h 97 % 0.02 in /  0.51 mm 0 W/m2
05:06 37.4 °F /  3 °C 36.6 °F /  2.6 °C 29.69 in /  1005.3 hPa ESE 1.0 mph /  1.6 km/h -999.0 mph /  -1607.7 km/h 97 % 0.02 in /  0.51 mm 0 W/m2
05:11 37.3 °F /  2.9 °C 36.8 °F /  2.7 °C 29.69 in /  1005.3 hPa ESE 3.0 mph /  4.8 km/h -999.0 mph /  -1607.7 km/h 98 % 0.04 in /  1.02 mm 0 W/m2
05:16 37.3 °F /  2.9 °C 36.8 °F /  2.7 °C 29.69 in /  1005.3 hPa ESE 3.0 mph /  4.8 km/h -999.0 mph /  -1607.7 km/h 98 % 0.04 in /  1.02 mm 0 W/m2
05:21 37.3 °F /  2.9 °C 36.8 °F /  2.7 °C 29.69 in /  1005.3 hPa ESE 3.0 mph /  4.8 km/h -999.0 mph /  -1607.7 km/h 98 % 0.04 in /  1.02 mm 0 W/m2
05:26 37.4 °F /  3 °C 36.9 °F /  2.7 °C 29.69 in /  1005.3 hPa ESE 3.0 mph /  4.8 km/h -999.0 mph /  -1607.7 km/h 98 % 0.04 in /  1.02 mm 0 W/m2
05:31 37.4 °F /  3 °C 36.9 °F /  2.7 °C 29.69 in /  1005.3 hPa ESE 3.0 mph /  4.8 km/h -999.0 mph /  -1607.7 km/h 98 % 0.04 in /  1.02 mm 0 W/m2
05:36 37.4 °F /  3 °C 36.9 °F /  2.7 °C 29.69 in /  1005.3 hPa ESE 3.0 mph /  4.8 km/h -999.0 mph /  -1607.7 km/h 98 % 0.04 in /  1.02 mm 0 W/m2
05:41 37.5 °F /  3.1 °C 37.0 °F /  2.8 °C 29.69 in /  1005.3 hPa ESE 3.0 mph /  4.8 km/h -999.0 mph /  -1607.7 km/h 98 % 0.04 in /  1.02 mm 0 W/m2
05:46 37.5 °F /  3.1 °C 37.0 °F /  2.8 °C 29.69 in /  1005.3 hPa ESE 3.0 mph /  4.8 km/h -999.0 mph /  -1607.7 km/h 98 % 0.04 in /  1.02 mm 0 W/m2
05:51 37.5 °F /  3.1 °C 37.0 °F /  2.8 °C 29.69 in /  1005.3 hPa ESE 3.0 mph /  4.8 km/h -999.0 mph /  -1607.7 km/h 98 % 0.04 in /  1.02 mm 0 W/m2
05:56 37.6 °F /  3.1 °C 37.1 °F /  2.8 °C 29.67 in /  1004.6 hPa ESE 1.0 mph /  1.6 km/h -999.0 mph /  -1607.7 km/h 98 % 0.03 in /  0.76 mm 0 W/m2
06:01 37.6 °F /  3.1 °C 37.1 °F /  2.8 °C 29.67 in /  1004.6 hPa ESE 1.0 mph /  1.6 km/h -999.0 mph /  -1607.7 km/h 98 % 0.03 in /  0.76 mm 0 W/m2
06:06 37.6 °F /  3.1 °C 37.1 °F /  2.8 °C 29.67 in /  1004.6 hPa ESE 1.0 mph /  1.6 km/h -999.0 mph /  -1607.7 km/h 98 % 0.03 in /  0.76 mm 0 W/m2
06:11 37.7 °F /  3.2 °C 37.2 °F /  2.9 °C 29.67 in /  1004.6 hPa ESE 3.0 mph /  4.8 km/h -999.0 mph /  -1607.7 km/h 98 % 0.02 in /  0.51 mm 0 W/m2
06:16 37.7 °F /  3.2 °C 37.2 °F /  2.9 °C 29.67 in /  1004.6 hPa ESE 3.0 mph /  4.8 km/h -999.0 mph /  -1607.7 km/h 98 % 0.02 in /  0.51 mm 0 W/m2
06:21 37.7 °F /  3.2 °C 37.2 °F /  2.9 °C 29.67 in /  1004.6 hPa ESE 3.0 mph /  4.8 km/h -999.0 mph /  -1607.7 km/h 98 % 0.02 in /  0.51 mm 0 W/m2
06:26 37.8 °F /  3.2 °C 37.3 °F /  2.9 °C 29.67 in /  1004.6 hPa ESE 2.0 mph /  3.2 km/h -999.0 mph /  -1607.7 km/h 98 % 0.02 in /  0.51 mm 0 W/m2
06:31 37.8 °F /  3.2 °C 37.3 °F /  2.9 °C 29.67 in /  1004.6 hPa ESE 2.0 mph /  3.2 km/h -999.0 mph /  -1607.7 km/h 98 % 0.02 in /  0.51 mm 0 W/m2
06:36 37.8 °F /  3.2 °C 37.3 °F /  2.9 °C 29.67 in /  1004.6 hPa ESE 2.0 mph /  3.2 km/h -999.0 mph /  -1607.7 km/h 98 % 0.02 in /  0.51 mm 0 W/m2
06:41 37.9 °F /  3.3 °C 37.4 °F /  3 °C 29.67 in /  1004.6 hPa ESE 4.0 mph /  6.4 km/h -999.0 mph /  -1607.7 km/h 98 % 0.01 in /  0.25 mm 0 W/m2
06:46 37.9 °F /  3.3 °C 37.4 °F /  3 °C 29.67 in /  1004.6 hPa ESE 4.0 mph /  6.4 km/h -999.0 mph /  -1607.7 km/h 98 % 0.01 in /  0.25 mm 0 W/m2
06:51 37.9 °F /  3.3 °C 37.4 °F /  3 °C 29.67 in /  1004.6 hPa ESE 4.0 mph /  6.4 km/h -999.0 mph /  -1607.7 km/h 98 % 0.01 in /  0.25 mm 0 W/m2
06:56 38.0 °F /  3.3 °C 37.5 °F /  3.1 °C 29.66 in /  1004.3 hPa SE 4.0 mph /  6.4 km/h -999.0 mph /  -1607.7 km/h 98 % 0.01 in /  0.25 mm 0 W/m2
07:01 38.0 °F /  3.3 °C 37.5 °F /  3.1 °C 29.66 in /  1004.3 hPa SE 4.0 mph /  6.4 km/h -999.0 mph /  -1607.7 km/h 98 % 0.01 in /  0.25 mm 0 W/m2
07:06 38.0 °F /  3.3 °C 37.5 °F /  3.1 °C 29.66 in /  1004.3 hPa SE 4.0 mph /  6.4 km/h -999.0 mph /  -1607.7 km/h 98 % 0.01 in /  0.25 mm 0 W/m2
07:11 38.1 °F /  3.4 °C 37.6 °F /  3.1 °C 29.66 in /  1004.3 hPa SE 3.0 mph /  4.8 km/h -999.0 mph /  -1607.7 km/h 98 % 0.00 in /  0 mm 0 W/m2
07:16 38.1 °F /  3.4 °C 37.6 °F /  3.1 °C 29.66 in /  1004.3 hPa SE 3.0 mph /  4.8 km/h -999.0 mph /  -1607.7 km/h 98 % 0.00 in /  0 mm 0 W/m2
07:21 38.1 °F /  3.4 °C 37.6 °F /  3.1 °C 29.66 in /  1004.3 hPa SE 3.0 mph /  4.8 km/h -999.0 mph /  -1607.7 km/h 98 % 0.00 in /  0 mm 0 W/m2
07:26 38.2 °F /  3.4 °C 37.7 °F /  3.2 °C 29.66 in /  1004.3 hPa SE 4.0 mph /  6.4 km/h -999.0 mph /  -1607.7 km/h 98 % 0.00 in /  0 mm 0 W/m2
07:31 38.2 °F /  3.4 °C 37.7 °F /  3.2 °C 29.66 in /  1004.3 hPa SE 4.0 mph /  6.4 km/h -999.0 mph /  -1607.7 km/h 98 % 0.00 in /  0 mm 0 W/m2
07:36 38.2 °F /  3.4 °C 37.7 °F /  3.2 °C 29.66 in /  1004.3 hPa SE 4.0 mph /  6.4 km/h -999.0 mph /  -1607.7 km/h 98 % 0.00 in /  0 mm 0 W/m2
07:41 38.3 °F /  3.5 °C 37.8 °F /  3.2 °C 29.66 in /  1004.3 hPa SSE 4.0 mph /  6.4 km/h -999.0 mph /  -1607.7 km/h 98 % 0.00 in /  0 mm 0 W/m2
07:46 38.3 °F /  3.5 °C 37.8 °F /  3.2 °C 29.66 in /  1004.3 hPa SSE 4.0 mph /  6.4 km/h -999.0 mph /  -1607.7 km/h 98 % 0.00 in /  0 mm 0 W/m2
07:51 38.3 °F /  3.5 °C 37.8 °F /  3.2 °C 29.66 in /  1004.3 hPa SSE 4.0 mph /  6.4 km/h -999.0 mph /  -1607.7 km/h 98 % 0.00 in /  0 mm 0 W/m2
07:56 38.4 °F /  3.6 °C 37.9 °F /  3.3 °C 29.66 in /  1004.3 hPa SE 2.0 mph /  3.2 km/h -999.0 mph /  -1607.7 km/h 98 % 0.00 in /  0 mm 0 W/m2
08:01 38.4 °F /  3.6 °C 37.9 °F /  3.3 °C 29.66 in /  1004.3 hPa SE 2.0 mph /  3.2 km/h -999.0 mph /  -1607.7 km/h 98 % 0.00 in /  0 mm 0 W/m2
08:06 38.4 °F /  3.6 °C 37.9 °F /  3.3 °C 29.66 in /  1004.3 hPa SE 2.0 mph /  3.2 km/h -999.0 mph /  -1607.7 km/h 98 % 0.00 in /  0 mm 0 W/m2
08:11 38.5 °F /  3.6 °C 38.0 °F /  3.3 °C 29.66 in /  1004.3 hPa SE 1.0 mph /  1.6 km/h -999.0 mph /  -1607.7 km/h 98 % 0.01 in /  0.25 mm 1 W/m2
08:16 38.5 °F /  3.6 °C 38.0 °F /  3.3 °C 29.66 in /  1004.3 hPa SE 1.0 mph /  1.6 km/h -999.0 mph /  -1607.7 km/h 98 % 0.01 in /  0.25 mm 1 W/m2
08:21 38.5 °F /  3.6 °C 38.0 °F /  3.3 °C 29.66 in /  1004.3 hPa SE 1.0 mph /  1.6 km/h -999.0 mph /  -1607.7 km/h 98 % 0.01 in /  0.25 mm 1 W/m2
08:26 38.5 °F /  3.6 °C 38.0 °F /  3.3 °C 29.66 in /  1004.3 hPa SE 1.0 mph /  1.6 km/h -999.0 mph /  -1607.7 km/h 98 % 0.01 in /  0.25 mm 5 W/m2
08:31 38.5 °F /  3.6 °C 38.0 °F /  3.3 °C 29.66 in /  1004.3 hPa SE 1.0 mph /  1.6 km/h -999.0 mph /  -1607.7 km/h 98 % 0.01 in /  0.25 mm 5 W/m2
08:36 38.5 °F /  3.6 °C 38.0 °F /  3.3 °C 29.66 in /  1004.3 hPa SE 1.0 mph /  1.6 km/h -999.0 mph /  -1607.7 km/h 98 % 0.01 in /  0.25 mm 5 W/m2
08:41 38.6 °F /  3.7 °C 38.1 °F /  3.4 °C 29.66 in /  1004.3 hPa SE 3.0 mph /  4.8 km/h -999.0 mph /  -1607.7 km/h 98 % 0.01 in /  0.25 mm 11 W/m2
08:46 38.6 °F /  3.7 °C 38.1 °F /  3.4 °C 29.66 in /  1004.3 hPa SE 3.0 mph /  4.8 km/h -999.0 mph /  -1607.7 km/h 98 % 0.01 in /  0.25 mm 11 W/m2
08:51 38.6 °F /  3.7 °C 38.1 °F /  3.4 °C 29.66 in /  1004.3 hPa SE 3.0 mph /  4.8 km/h -999.0 mph /  -1607.7 km/h 98 % 0.01 in /  0.25 mm 11 W/m2
08:56 38.7 °F /  3.7 °C 38.2 °F /  3.4 °C 29.66 in /  1004.3 hPa SE 3.0 mph /  4.8 km/h -999.0 mph /  -1607.7 km/h 98 % 0.01 in /  0.25 mm 28 W/m2
09:01 38.7 °F /  3.7 °C 38.2 °F /  3.4 °C 29.66 in /  1004.3 hPa SE 3.0 mph /  4.8 km/h -999.0 mph /  -1607.7 km/h 98 % 0.01 in /  0.25 mm 28 W/m2
09:06 38.7 °F /  3.7 °C 38.2 °F /  3.4 °C 29.66 in /  1004.3 hPa SE 3.0 mph /  4.8 km/h -999.0 mph /  -1607.7 km/h 98 % 0.01 in /  0.25 mm 28 W/m2
09:11 38.9 °F /  3.8 °C 38.4 °F /  3.6 °C 29.66 in /  1004.3 hPa SE 2.0 mph /  3.2 km/h -999.0 mph /  -1607.7 km/h 98 % 0.00 in /  0 mm 31 W/m2
09:16 38.9 °F /  3.8 °C 38.4 °F /  3.6 °C 29.66 in /  1004.3 hPa SE 2.0 mph /  3.2 km/h -999.0 mph /  -1607.7 km/h 98 % 0.00 in /  0 mm 31 W/m2
09:21 38.9 °F /  3.8 °C 38.4 °F /  3.6 °C 29.66 in /  1004.3 hPa SE 2.0 mph /  3.2 km/h -999.0 mph /  -1607.7 km/h 98 % 0.00 in /  0 mm 31 W/m2
09:26 39.1 °F /  3.9 °C 38.6 °F /  3.7 °C 29.66 in /  1004.3 hPa Calm   -999.0 mph /  -1607.7 km/h 98 % 0.00 in /  0 mm 23 W/m2
09:31 39.1 °F /  3.9 °C 38.6 °F /  3.7 °C 29.66 in /  1004.3 hPa Calm   -999.0 mph /  -1607.7 km/h 98 % 0.00 in /  0 mm 23 W/m2
09:36 39.1 °F /  3.9 °C 38.6 °F /  3.7 °C 29.66 in /  1004.3 hPa Calm   -999.0 mph /  -1607.7 km/h 98 % 0.00 in /  0 mm 23 W/m2
09:41 39.4 °F /  4.1 °C 38.9 °F /  3.8 °C 29.66 in /  1004.3 hPa SE 1.0 mph /  1.6 km/h -999.0 mph /  -1607.7 km/h 98 % 0.00 in /  0 mm 28 W/m2
09:46 39.4 °F /  4.1 °C 38.9 °F /  3.8 °C 29.66 in /  1004.3 hPa SE 1.0 mph /  1.6 km/h -999.0 mph /  -1607.7 km/h 98 % 0.00 in /  0 mm 28 W/m2
09:51 39.4 °F /  4.1 °C 38.9 °F /  3.8 °C 29.66 in /  1004.3 hPa SE 1.0 mph /  1.6 km/h -999.0 mph /  -1607.7 km/h 98 % 0.00 in /  0 mm 28 W/m2
09:56 39.7 °F /  4.3 °C 39.2 °F /  4 °C 29.66 in /  1004.3 hPa SE 3.0 mph /  4.8 km/h -999.0 mph /  -1607.7 km/h 98 % 0.00 in /  0 mm 34 W/m2
10:01 39.7 °F /  4.3 °C 39.2 °F /  4 °C 29.66 in /  1004.3 hPa SE 3.0 mph /  4.8 km/h -999.0 mph /  -1607.7 km/h 98 % 0.00 in /  0 mm 34 W/m2
10:06 39.7 °F /  4.3 °C 39.2 °F /  4 °C 29.66 in /  1004.3 hPa SE 3.0 mph /  4.8 km/h -999.0 mph /  -1607.7 km/h 98 % 0.00 in /  0 mm 34 W/m2
10:11 39.9 °F /  4.4 °C 39.4 °F /  4.1 °C 29.66 in /  1004.3 hPa ESE 2.0 mph /  3.2 km/h -999.0 mph /  -1607.7 km/h 98 % 0.00 in /  0 mm 25 W/m2
10:16 39.9 °F /  4.4 °C 39.4 °F /  4.1 °C 29.66 in /  1004.3 hPa ESE 2.0 mph /  3.2 km/h -999.0 mph /  -1607.7 km/h 98 % 0.00 in /  0 mm 25 W/m2
10:21 39.9 °F /  4.4 °C 39.4 °F /  4.1 °C 29.66 in /  1004.3 hPa ESE 2.0 mph /  3.2 km/h -999.0 mph /  -1607.7 km/h 98 % 0.00 in /  0 mm 25 W/m2
10:26 40.1 °F /  4.5 °C 39.6 °F /  4.2 °C 29.67 in /  1004.6 hPa Calm   -999.0 mph /  -1607.7 km/h 98 % 0.01 in /  0.25 mm 30 W/m2
10:31 40.1 °F /  4.5 °C 39.6 °F /  4.2 °C 29.67 in /  1004.6 hPa Calm   -999.0 mph /  -1607.7 km/h 98 % 0.01 in /  0.25 mm 30 W/m2
10:36 40.1 °F /  4.5 °C 39.6 °F /  4.2 °C 29.67 in /  1004.6 hPa Calm   -999.0 mph /  -1607.7 km/h 98 % 0.01 in /  0.25 mm 30 W/m2
10:41 40.2 °F /  4.6 °C 39.7 °F /  4.3 °C 29.67 in /  1004.6 hPa Calm   -999.0 mph /  -1607.7 km/h 98 % 0.01 in /  0.25 mm 34 W/m2
10:46 40.2 °F /  4.6 °C 39.7 °F /  4.3 °C 29.67 in /  1004.6 hPa Calm   -999.0 mph /  -1607.7 km/h 98 % 0.01 in /  0.25 mm 34 W/m2
10:51 40.2 °F /  4.6 °C 39.7 °F /  4.3 °C 29.67 in /  1004.6 hPa Calm   -999.0 mph /  -1607.7 km/h 98 % 0.01 in /  0.25 mm 34 W/m2
10:56 40.5 °F /  4.7 °C 40.0 °F /  4.4 °C 29.67 in /  1004.6 hPa Calm   -999.0 mph /  -1607.7 km/h 98 % 0.02 in /  0.51 mm 27 W/m2
11:01 40.5 °F /  4.7 °C 40.0 °F /  4.4 °C 29.67 in /  1004.6 hPa Calm   -999.0 mph /  -1607.7 km/h 98 % 0.02 in /  0.51 mm 27 W/m2
11:06 40.5 °F /  4.7 °C 40.0 °F /  4.4 °C 29.67 in /  1004.6 hPa Calm   -999.0 mph /  -1607.7 km/h 98 % 0.02 in /  0.51 mm 27 W/m2
11:11 40.7 °F /  4.8 °C 40.2 °F /  4.6 °C 29.67 in /  1004.6 hPa Calm   -999.0 mph /  -1607.7 km/h 98 % 0.02 in /  0.51 mm 38 W/m2
11:16 40.7 °F /  4.8 °C 40.2 °F /  4.6 °C 29.67 in /  1004.6 hPa Calm   -999.0 mph /  -1607.7 km/h 98 % 0.02 in /  0.51 mm 38 W/m2
11:21 40.7 °F /  4.8 °C 40.2 °F /  4.6 °C 29.67 in /  1004.6 hPa Calm   -999.0 mph /  -1607.7 km/h 98 % 0.02 in /  0.51 mm 38 W/m2
11:26 41.1 °F /  5.1 °C 40.6 °F /  4.8 °C 29.68 in /  1005 hPa West 3.0 mph /  4.8 km/h -999.0 mph /  -1607.7 km/h 98 % 0.02 in /  0.51 mm 31 W/m2
11:31 41.1 °F /  5.1 °C 40.6 °F /  4.8 °C 29.68 in /  1005 hPa West 3.0 mph /  4.8 km/h -999.0 mph /  -1607.7 km/h 98 % 0.02 in /  0.51 mm 31 W/m2
11:36 41.1 °F /  5.1 °C 40.6 °F /  4.8 °C 29.68 in /  1005 hPa West 3.0 mph /  4.8 km/h -999.0 mph /  -1607.7 km/h 98 % 0.02 in /  0.51 mm 31 W/m2
11:41 40.8 °F /  4.9 °C 40.3 °F /  4.6 °C 29.68 in /  1005 hPa West 9.0 mph /  14.5 km/h -999.0 mph /  -1607.7 km/h 98 % 0.02 in /  0.51 mm 32 W/m2
11:46 40.8 °F /  4.9 °C 40.3 °F /  4.6 °C 29.68 in /  1005 hPa West 9.0 mph /  14.5 km/h -999.0 mph /  -1607.7 km/h 98 % 0.02 in /  0.51 mm 32 W/m2
11:51 40.8 °F /  4.9 °C 40.3 °F /  4.6 °C 29.68 in /  1005 hPa West 9.0 mph /  14.5 km/h -999.0 mph /  -1607.7 km/h 98 % 0.02 in /  0.51 mm 32 W/m2
11:56 40.5 °F /  4.7 °C 40.0 °F /  4.4 °C 29.68 in /  1005 hPa West 8.0 mph /  12.9 km/h -999.0 mph /  -1607.7 km/h 98 % 0.01 in /  0.25 mm 121 W/m2
12:01 40.5 °F /  4.7 °C 40.0 °F /  4.4 °C 29.68 in /  1005 hPa West 8.0 mph /  12.9 km/h -999.0 mph /  -1607.7 km/h 98 % 0.01 in /  0.25 mm 121 W/m2
12:06 40.5 °F /  4.7 °C 40.0 °F /  4.4 °C 29.68 in /  1005 hPa West 8.0 mph /  12.9 km/h -999.0 mph /  -1607.7 km/h 98 % 0.01 in /  0.25 mm 121 W/m2
12:11 41.0 °F /  5 °C 40.5 °F /  4.7 °C 29.68 in /  1005 hPa West 11.0 mph /  17.7 km/h -999.0 mph /  -1607.7 km/h 98 % 0.00 in /  0 mm 169 W/m2
12:16 41.0 °F /  5 °C 40.5 °F /  4.7 °C 29.68 in /  1005 hPa West 11.0 mph /  17.7 km/h -999.0 mph /  -1607.7 km/h 98 % 0.00 in /  0 mm 169 W/m2
12:21 41.0 °F /  5 °C 40.5 °F /  4.7 °C 29.68 in /  1005 hPa West 11.0 mph /  17.7 km/h -999.0 mph /  -1607.7 km/h 98 % 0.00 in /  0 mm 169 W/m2
12:26 41.8 °F /  5.4 °C 40.7 °F /  4.8 °C 29.69 in /  1005.3 hPa WSW 13.0 mph /  20.9 km/h -999.0 mph /  -1607.7 km/h 96 % 0.00 in /  0 mm 234 W/m2
12:31 41.8 °F /  5.4 °C 40.7 °F /  4.8 °C 29.69 in /  1005.3 hPa WSW 13.0 mph /  20.9 km/h -999.0 mph /  -1607.7 km/h 96 % 0.00 in /  0 mm 234 W/m2
12:36 41.8 °F /  5.4 °C 40.7 °F /  4.8 °C 29.69 in /  1005.3 hPa WSW 13.0 mph /  20.9 km/h -999.0 mph /  -1607.7 km/h 96 % 0.00 in /  0 mm 234 W/m2
12:41 41.7 °F /  5.4 °C 40.1 °F /  4.5 °C 29.70 in /  1005.6 hPa West 10.0 mph /  16.1 km/h -999.0 mph /  -1607.7 km/h 94 % 0.00 in /  0 mm 84 W/m2
12:46 41.7 °F /  5.4 °C 40.1 °F /  4.5 °C 29.70 in /  1005.6 hPa West 10.0 mph /  16.1 km/h -999.0 mph /  -1607.7 km/h 94 % 0.00 in /  0 mm 84 W/m2
12:51 41.7 °F /  5.4 °C 40.1 °F /  4.5 °C 29.70 in /  1005.6 hPa West 10.0 mph /  16.1 km/h -999.0 mph /  -1607.7 km/h 94 % 0.00 in /  0 mm 84 W/m2
12:56 41.8 °F /  5.4 °C 39.9 °F /  4.4 °C 29.69 in /  1005.3 hPa West 8.0 mph /  12.9 km/h -999.0 mph /  -1607.7 km/h 93 % 0.00 in /  0 mm 94 W/m2
13:01 41.8 °F /  5.4 °C 39.9 °F /  4.4 °C 29.69 in /  1005.3 hPa West 8.0 mph /  12.9 km/h -999.0 mph /  -1607.7 km/h 93 % 0.00 in /  0 mm 94 W/m2
13:06 41.8 °F /  5.4 °C 39.9 °F /  4.4 °C 29.69 in /  1005.3 hPa West 8.0 mph /  12.9 km/h -999.0 mph /  -1607.7 km/h 93 % 0.00 in /  0 mm 94 W/m2
13:11 42.2 °F /  5.7 °C 40.6 °F /  4.8 °C 29.70 in /  1005.6 hPa West 6.0 mph /  9.7 km/h -999.0 mph /  -1607.7 km/h 94 % 0.00 in /  0 mm 160 W/m2
13:16 42.2 °F /  5.7 °C 40.6 °F /  4.8 °C 29.70 in /  1005.6 hPa West 6.0 mph /  9.7 km/h -999.0 mph /  -1607.7 km/h 94 % 0.00 in /  0 mm 160 W/m2
13:21 42.2 °F /  5.7 °C 40.6 °F /  4.8 °C 29.70 in /  1005.6 hPa West 6.0 mph /  9.7 km/h -999.0 mph /  -1607.7 km/h 94 % 0.00 in /  0 mm 160 W/m2
13:26 43.1 °F /  6.2 °C 40.9 °F /  4.9 °C 29.70 in /  1005.6 hPa West 6.0 mph /  9.7 km/h -999.0 mph /  -1607.7 km/h 92 % 0.00 in /  0 mm 273 W/m2
13:31 43.1 °F /  6.2 °C 40.9 °F /  4.9 °C 29.70 in /  1005.6 hPa West 6.0 mph /  9.7 km/h -999.0 mph /  -1607.7 km/h 92 % 0.00 in /  0 mm 273 W/m2
13:36 43.1 °F /  6.2 °C 40.9 °F /  4.9 °C 29.70 in /  1005.6 hPa West 6.0 mph /  9.7 km/h -999.0 mph /  -1607.7 km/h 92 % 0.00 in /  0 mm 273 W/m2
13:41 44.3 °F /  6.8 °C 41.6 °F /  5.3 °C 29.70 in /  1005.6 hPa WSW 9.0 mph /  14.5 km/h -999.0 mph /  -1607.7 km/h 90 % 0.00 in /  0 mm 405 W/m2
13:46 44.3 °F /  6.8 °C 41.6 °F /  5.3 °C 29.70 in /  1005.6 hPa WSW 9.0 mph /  14.5 km/h -999.0 mph /  -1607.7 km/h 90 % 0.00 in /  0 mm 405 W/m2
13:51 44.3 °F /  6.8 °C 41.6 °F /  5.3 °C 29.70 in /  1005.6 hPa WSW 9.0 mph /  14.5 km/h -999.0 mph /  -1607.7 km/h 90 % 0.00 in /  0 mm 405 W/m2
13:56 45.4 °F /  7.4 °C 41.5 °F /  5.3 °C 29.70 in /  1005.6 hPa WSW 8.0 mph /  12.9 km/h -999.0 mph /  -1607.7 km/h 86 % 0.00 in /  0 mm 412 W/m2
14:01 45.4 °F /  7.4 °C 41.5 °F /  5.3 °C 29.70 in /  1005.6 hPa WSW 8.0 mph /  12.9 km/h -999.0 mph /  -1607.7 km/h 86 % 0.00 in /  0 mm 412 W/m2
14:06 45.4 °F /  7.4 °C 41.5 °F /  5.3 °C 29.70 in /  1005.6 hPa WSW 8.0 mph /  12.9 km/h -999.0 mph /  -1607.7 km/h 86 % 0.00 in /  0 mm 412 W/m2
14:11 44.9 °F /  7.2 °C 41.3 °F /  5.2 °C 29.71 in /  1006 hPa WSW 8.0 mph /  12.9 km/h -999.0 mph /  -1607.7 km/h 87 % 0.00 in /  0 mm 156 W/m2
14:16 44.9 °F /  7.2 °C 41.3 °F /  5.2 °C 29.71 in /  1006 hPa WSW 8.0 mph /  12.9 km/h -999.0 mph /  -1607.7 km/h 87 % 0.00 in /  0 mm 156 W/m2
14:21 44.9 °F /  7.2 °C 41.3 °F /  5.2 °C 29.71 in /  1006 hPa WSW 8.0 mph /  12.9 km/h -999.0 mph /  -1607.7 km/h 87 % 0.00 in /  0 mm 156 W/m2
14:26 44.2 °F /  6.8 °C 40.6 °F /  4.8 °C 29.71 in /  1006 hPa SW 7.0 mph /  11.3 km/h -999.0 mph /  -1607.7 km/h 87 % 0.00 in /  0 mm 97 W/m2
14:31 44.2 °F /  6.8 °C 40.6 °F /  4.8 °C 29.71 in /  1006 hPa SW 7.0 mph /  11.3 km/h -999.0 mph /  -1607.7 km/h 87 % 0.00 in /  0 mm 97 W/m2
14:36 44.2 °F /  6.8 °C 40.6 °F /  4.8 °C 29.71 in /  1006 hPa SW 7.0 mph /  11.3 km/h -999.0 mph /  -1607.7 km/h 87 % 0.00 in /  0 mm 97 W/m2
14:41 43.8 °F /  6.6 °C 40.8 °F /  4.9 °C 29.72 in /  1006.3 hPa WSW 6.0 mph /  9.7 km/h -999.0 mph /  -1607.7 km/h 89 % 0.00 in /  0 mm 72 W/m2
14:46 43.8 °F /  6.6 °C 40.8 °F /  4.9 °C 29.72 in /  1006.3 hPa WSW 6.0 mph /  9.7 km/h -999.0 mph /  -1607.7 km/h 89 % 0.00 in /  0 mm 72 W/m2
14:51 43.8 °F /  6.6 °C 40.8 °F /  4.9 °C 29.72 in /  1006.3 hPa WSW 6.0 mph /  9.7 km/h -999.0 mph /  -1607.7 km/h 89 % 0.00 in /  0 mm 72 W/m2
14:56 43.5 °F /  6.4 °C 40.2 °F /  4.6 °C 29.73 in /  1006.7 hPa WSW 9.0 mph /  14.5 km/h -999.0 mph /  -1607.7 km/h 88 % 0.00 in /  0 mm 63 W/m2
15:01 43.5 °F /  6.4 °C 40.2 °F /  4.6 °C 29.73 in /  1006.7 hPa WSW 9.0 mph /  14.5 km/h -999.0 mph /  -1607.7 km/h 88 % 0.00 in /  0 mm 63 W/m2
15:06 43.5 °F /  6.4 °C 40.2 °F /  4.6 °C 29.73 in /  1006.7 hPa WSW 9.0 mph /  14.5 km/h -999.0 mph /  -1607.7 km/h 88 % 0.00 in /  0 mm 63 W/m2
15:11 43.2 °F /  6.2 °C 39.6 °F /  4.2 °C 29.73 in /  1006.7 hPa WSW 8.0 mph /  12.9 km/h -999.0 mph /  -1607.7 km/h 87 % 0.00 in /  0 mm 27 W/m2
15:16 43.2 °F /  6.2 °C 39.6 °F /  4.2 °C 29.73 in /  1006.7 hPa WSW 8.0 mph /  12.9 km/h -999.0 mph /  -1607.7 km/h 87 % 0.00 in /  0 mm 27 W/m2
15:21 43.2 °F /  6.2 °C 39.6 °F /  4.2 °C 29.73 in /  1006.7 hPa WSW 8.0 mph /  12.9 km/h -999.0 mph /  -1607.7 km/h 87 % 0.00 in /  0 mm 27 W/m2
15:26 43.0 °F /  6.1 °C 39.4 °F /  4.1 °C 29.73 in /  1006.7 hPa WSW 5.0 mph /  8 km/h -999.0 mph /  -1607.7 km/h 87 % 0.00 in /  0 mm 22 W/m2
15:31 43.0 °F /  6.1 °C 39.4 °F /  4.1 °C 29.73 in /  1006.7 hPa WSW 5.0 mph /  8 km/h -999.0 mph /  -1607.7 km/h 87 % 0.00 in /  0 mm 22 W/m2
15:36 43.0 °F /  6.1 °C 39.4 °F /  4.1 °C 29.73 in /  1006.7 hPa WSW 5.0 mph /  8 km/h -999.0 mph /  -1607.7 km/h 87 % 0.00 in /  0 mm 22 W/m2
15:41 42.9 °F /  6.1 °C 39.6 °F /  4.2 °C 29.74 in /  1007 hPa West 5.0 mph /  8 km/h -999.0 mph /  -1607.7 km/h 88 % 0.00 in /  0 mm 38 W/m2
15:46 42.9 °F /  6.1 °C 39.6 °F /  4.2 °C 29.74 in /  1007 hPa West 5.0 mph /  8 km/h -999.0 mph /  -1607.7 km/h 88 % 0.00 in /  0 mm 38 W/m2
15:51 42.9 °F /  6.1 °C 39.6 °F /  4.2 °C 29.74 in /  1007 hPa West 5.0 mph /  8 km/h -999.0 mph /  -1607.7 km/h 88 % 0.00 in /  0 mm 38 W/m2
15:56 42.9 °F /  6.1 °C 39.0 °F /  3.9 °C 29.74 in /  1007 hPa West 9.0 mph /  14.5 km/h -999.0 mph /  -1607.7 km/h 86 % 0.00 in /  0 mm 52 W/m2
16:01 42.9 °F /  6.1 °C 39.0 °F /  3.9 °C 29.74 in /  1007 hPa West 9.0 mph /  14.5 km/h -999.0 mph /  -1607.7 km/h 86 % 0.00 in /  0 mm 52 W/m2
16:06 42.9 °F /  6.1 °C 39.0 °F /  3.9 °C 29.74 in /  1007 hPa West 9.0 mph /  14.5 km/h -999.0 mph /  -1607.7 km/h 86 % 0.00 in /  0 mm 52 W/m2
16:11 42.7 °F /  5.9 °C 38.8 °F /  3.8 °C 29.74 in /  1007 hPa West 8.0 mph /  12.9 km/h -999.0 mph /  -1607.7 km/h 86 % 0.00 in /  0 mm 32 W/m2
16:16 42.7 °F /  5.9 °C 38.8 °F /  3.8 °C 29.74 in /  1007 hPa West 8.0 mph /  12.9 km/h -999.0 mph /  -1607.7 km/h 86 % 0.00 in /  0 mm 32 W/m2
16:21 42.7 °F /  5.9 °C 38.8 °F /  3.8 °C 29.74 in /  1007 hPa West 8.0 mph /  12.9 km/h -999.0 mph /  -1607.7 km/h 86 % 0.00 in /  0 mm 32 W/m2
16:26 42.5 °F /  5.8 °C 38.9 °F /  3.8 °C 29.75 in /  1007.3 hPa West 9.0 mph /  14.5 km/h -999.0 mph /  -1607.7 km/h 87 % 0.00 in /  0 mm 12 W/m2
16:31 42.5 °F /  5.8 °C 38.9 °F /  3.8 °C 29.75 in /  1007.3 hPa West 9.0 mph /  14.5 km/h -999.0 mph /  -1607.7 km/h 87 % 0.00 in /  0 mm 12 W/m2
16:36 42.5 °F /  5.8 °C 38.9 °F /  3.8 °C 29.75 in /  1007.3 hPa West 9.0 mph /  14.5 km/h -999.0 mph /  -1607.7 km/h 87 % 0.00 in /  0 mm 12 W/m2
16:41 42.4 °F /  5.8 °C 38.8 °F /  3.8 °C 29.75 in /  1007.3 hPa West 8.0 mph /  12.9 km/h -999.0 mph /  -1607.7 km/h 87 % 0.00 in /  0 mm 1 W/m2
16:46 42.4 °F /  5.8 °C 38.8 °F /  3.8 °C 29.75 in /  1007.3 hPa West 8.0 mph /  12.9 km/h -999.0 mph /  -1607.7 km/h 87 % 0.00 in /  0 mm 1 W/m2
16:51 42.4 °F /  5.8 °C 38.8 °F /  3.8 °C 29.75 in /  1007.3 hPa West 8.0 mph /  12.9 km/h -999.0 mph /  -1607.7 km/h 87 % 0.00 in /  0 mm 1 W/m2
16:56 42.2 °F /  5.7 °C 38.9 °F /  3.8 °C 29.76 in /  1007.7 hPa West 8.0 mph /  12.9 km/h -999.0 mph /  -1607.7 km/h 88 % 0.00 in /  0 mm 0 W/m2
17:01 42.2 °F /  5.7 °C 38.9 °F /  3.8 °C 29.76 in /  1007.7 hPa West 8.0 mph /  12.9 km/h -999.0 mph /  -1607.7 km/h 88 % 0.00 in /  0 mm 0 W/m2
17:06 42.2 °F /  5.7 °C 38.9 °F /  3.8 °C 29.76 in /  1007.7 hPa West 8.0 mph /  12.9 km/h -999.0 mph /  -1607.7 km/h 88 % 0.00 in /  0 mm 0 W/m2
17:11 41.6 °F /  5.3 °C 38.6 °F /  3.7 °C 29.77 in /  1008 hPa West 11.0 mph /  17.7 km/h -999.0 mph /  -1607.7 km/h 89 % 0.00 in /  0 mm 0 W/m2
17:16 41.6 °F /  5.3 °C 38.6 °F /  3.7 °C 29.77 in /  1008 hPa West 11.0 mph /  17.7 km/h -999.0 mph /  -1607.7 km/h 89 % 0.00 in /  0 mm 0 W/m2
17:21 41.6 °F /  5.3 °C 38.6 °F /  3.7 °C 29.77 in /  1008 hPa West 11.0 mph /  17.7 km/h -999.0 mph /  -1607.7 km/h 89 % 0.00 in /  0 mm 0 W/m2
17:26 40.7 °F /  4.8 °C 38.0 °F /  3.3 °C 29.77 in /  1008 hPa WNW 4.0 mph /  6.4 km/h -999.0 mph /  -1607.7 km/h 90 % 0.00 in /  0 mm 0 W/m2
17:31 40.7 °F /  4.8 °C 38.0 °F /  3.3 °C 29.77 in /  1008 hPa WNW 4.0 mph /  6.4 km/h -999.0 mph /  -1607.7 km/h 90 % 0.00 in /  0 mm 0 W/m2
17:36 40.7 °F /  4.8 °C 38.0 °F /  3.3 °C 29.77 in /  1008 hPa WNW 4.0 mph /  6.4 km/h -999.0 mph /  -1607.7 km/h 90 % 0.00 in /  0 mm 0 W/m2
17:41 40.2 °F /  4.6 °C 37.8 °F /  3.2 °C 29.77 in /  1008 hPa WNW 3.0 mph /  4.8 km/h -999.0 mph /  -1607.7 km/h 91 % 0.00 in /  0 mm 0 W/m2
17:46 40.2 °F /  4.6 °C 37.8 °F /  3.2 °C 29.77 in /  1008 hPa WNW 3.0 mph /  4.8 km/h -999.0 mph /  -1607.7 km/h 91 % 0.00 in /  0 mm 0 W/m2
17:51 40.2 °F /  4.6 °C 37.8 °F /  3.2 °C 29.77 in /  1008 hPa WNW 3.0 mph /  4.8 km/h -999.0 mph /  -1607.7 km/h 91 % 0.00 in /  0 mm 0 W/m2
17:56 40.2 °F /  4.6 °C 37.8 °F /  3.2 °C 29.78 in /  1008.4 hPa WNW 1.0 mph /  1.6 km/h -999.0 mph /  -1607.7 km/h 91 % 0.00 in /  0 mm 0 W/m2
18:01 40.2 °F /  4.6 °C 37.8 °F /  3.2 °C 29.78 in /  1008.4 hPa WNW 1.0 mph /  1.6 km/h -999.0 mph /  -1607.7 km/h 91 % 0.00 in /  0 mm 0 W/m2
18:06 40.2 °F /  4.6 °C 37.8 °F /  3.2 °C 29.78 in /  1008.4 hPa WNW 1.0 mph /  1.6 km/h -999.0 mph /  -1607.7 km/h 91 % 0.00 in /  0 mm 0 W/m2
18:11 40.1 °F /  4.5 °C 37.7 °F /  3.2 °C 29.78 in /  1008.4 hPa Calm   -999.0 mph /  -1607.7 km/h 91 % 0.00 in /  0 mm 0 W/m2
18:16 40.1 °F /  4.5 °C 37.7 °F /  3.2 °C 29.78 in /  1008.4 hPa Calm   -999.0 mph /  -1607.7 km/h 91 % 0.00 in /  0 mm 0 W/m2
18:21 40.1 °F /  4.5 °C 37.7 °F /  3.2 °C 29.78 in /  1008.4 hPa Calm   -999.0 mph /  -1607.7 km/h 91 % 0.00 in /  0 mm 0 W/m2
18:26 39.8 °F /  4.3 °C 37.4 °F /  3 °C 29.79 in /  1008.7 hPa West 2.0 mph /  3.2 km/h -999.0 mph /  -1607.7 km/h 91 % 0.00 in /  0 mm 0 W/m2
18:31 39.8 °F /  4.3 °C 37.4 °F /  3 °C 29.79 in /  1008.7 hPa West 2.0 mph /  3.2 km/h -999.0 mph /  -1607.7 km/h 91 % 0.00 in /  0 mm 0 W/m2
18:36 39.8 °F /  4.3 °C 37.4 °F /  3 °C 29.79 in /  1008.7 hPa West 2.0 mph /  3.2 km/h -999.0 mph /  -1607.7 km/h 91 % 0.00 in /  0 mm 0 W/m2
18:41 39.3 °F /  4.1 °C 36.6 °F /  2.6 °C 29.79 in /  1008.7 hPa Calm   -999.0 mph /  -1607.7 km/h 90 % 0.00 in /  0 mm 0 W/m2
18:46 39.3 °F /  4.1 °C 36.6 °F /  2.6 °C 29.79 in /  1008.7 hPa Calm   -999.0 mph /  -1607.7 km/h 90 % 0.00 in /  0 mm 0 W/m2
18:51 39.3 °F /  4.1 °C 36.6 °F /  2.6 °C 29.79 in /  1008.7 hPa Calm   -999.0 mph /  -1607.7 km/h 90 % 0.00 in /  0 mm 0 W/m2
18:56 38.4 °F /  3.6 °C 35.7 °F /  2.1 °C 29.79 in /  1008.7 hPa Calm   -999.0 mph /  -1607.7 km/h 90 % 0.00 in /  0 mm 0 W/m2
19:01 38.4 °F /  3.6 °C 35.7 °F /  2.1 °C 29.79 in /  1008.7 hPa Calm   -999.0 mph /  -1607.7 km/h 90 % 0.00 in /  0 mm 0 W/m2
19:06 38.4 °F /  3.6 °C 35.7 °F /  2.1 °C 29.79 in /  1008.7 hPa Calm   -999.0 mph /  -1607.7 km/h 90 % 0.00 in /  0 mm 0 W/m2
19:11 37.4 °F /  3 °C 35.0 °F /  1.7 °C 29.80 in /  1009 hPa Calm   -999.0 mph /  -1607.7 km/h 91 % 0.00 in /  0 mm 0 W/m2
19:16 37.4 °F /  3 °C 35.0 °F /  1.7 °C 29.80 in /  1009 hPa Calm   -999.0 mph /  -1607.7 km/h 91 % 0.00 in /  0 mm 0 W/m2
19:21 37.4 °F /  3 °C 35.0 °F /  1.7 °C 29.80 in /  1009 hPa Calm   -999.0 mph /  -1607.7 km/h 91 % 0.00 in /  0 mm 0 W/m2
19:26 36.9 °F /  2.7 °C 34.8 °F /  1.6 °C 29.80 in /  1009 hPa Calm   -999.0 mph /  -1607.7 km/h 92 % 0.00 in /  0 mm 0 W/m2
19:31 36.9 °F /  2.7 °C 34.8 °F /  1.6 °C 29.80 in /  1009 hPa Calm   -999.0 mph /  -1607.7 km/h 92 % 0.00 in /  0 mm 0 W/m2
19:36 36.9 °F /  2.7 °C 34.8 °F /  1.6 °C 29.80 in /  1009 hPa Calm   -999.0 mph /  -1607.7 km/h 92 % 0.00 in /  0 mm 0 W/m2
19:41 36.7 °F /  2.6 °C 34.6 °F /  1.4 °C 29.80 in /  1009 hPa Calm   -999.0 mph /  -1607.7 km/h 92 % 0.00 in /  0 mm 0 W/m2
19:46 36.7 °F /  2.6 °C 34.6 °F /  1.4 °C 29.80 in /  1009 hPa Calm   -999.0 mph /  -1607.7 km/h 92 % 0.00 in /  0 mm 0 W/m2
19:51 36.7 °F /  2.6 °C 34.6 °F /  1.4 °C 29.80 in /  1009 hPa Calm   -999.0 mph /  -1607.7 km/h 92 % 0.00 in /  0 mm 0 W/m2
19:56 36.3 °F /  2.4 °C 34.2 °F /  1.2 °C 29.81 in /  1009.4 hPa Calm   -999.0 mph /  -1607.7 km/h 92 % 0.00 in /  0 mm 0 W/m2
20:01 36.3 °F /  2.4 °C 34.2 °F /  1.2 °C 29.81 in /  1009.4 hPa Calm   -999.0 mph /  -1607.7 km/h 92 % 0.00 in /  0 mm 0 W/m2
20:06 36.3 °F /  2.4 °C 34.2 °F /  1.2 °C 29.81 in /  1009.4 hPa Calm   -999.0 mph /  -1607.7 km/h 92 % 0.00 in /  0 mm 0 W/m2
20:11 35.9 °F /  2.2 °C 34.1 °F /  1.2 °C 29.81 in /  1009.4 hPa Calm   -999.0 mph /  -1607.7 km/h 93 % 0.00 in /  0 mm 0 W/m2
20:16 35.9 °F /  2.2 °C 34.1 °F /  1.2 °C 29.81 in /  1009.4 hPa Calm   -999.0 mph /  -1607.7 km/h 93 % 0.00 in /  0 mm 0 W/m2
20:21 35.9 °F /  2.2 °C 34.1 °F /  1.2 °C 29.81 in /  1009.4 hPa Calm   -999.0 mph /  -1607.7 km/h 93 % 0.00 in /  0 mm 0 W/m2
20:26 35.5 °F /  1.9 °C 33.7 °F /  0.9 °C 29.81 in /  1009.4 hPa SE 1.0 mph /  1.6 km/h -999.0 mph /  -1607.7 km/h 93 % 0.00 in /  0 mm 0 W/m2
20:31 35.5 °F /  1.9 °C 33.7 °F /  0.9 °C 29.81 in /  1009.4 hPa SE 1.0 mph /  1.6 km/h -999.0 mph /  -1607.7 km/h 93 % 0.00 in /  0 mm 0 W/m2
20:36 35.5 °F /  1.9 °C 33.7 °F /  0.9 °C 29.81 in /  1009.4 hPa SE 1.0 mph /  1.6 km/h -999.0 mph /  -1607.7 km/h 93 % 0.00 in /  0 mm 0 W/m2
20:41 35.7 °F /  2.1 °C 33.9 °F /  1.1 °C 29.81 in /  1009.4 hPa SE 2.0 mph /  3.2 km/h -999.0 mph /  -1607.7 km/h 93 % 0.00 in /  0 mm 0 W/m2
20:46 35.7 °F /  2.1 °C 33.9 °F /  1.1 °C 29.81 in /  1009.4 hPa SE 2.0 mph /  3.2 km/h -999.0 mph /  -1607.7 km/h 93 % 0.00 in /  0 mm 0 W/m2
20:51 35.7 °F /  2.1 °C 33.9 °F /  1.1 °C 29.81 in /  1009.4 hPa SE 2.0 mph /  3.2 km/h -999.0 mph /  -1607.7 km/h 93 % 0.00 in /  0 mm 0 W/m2
20:56 35.8 °F /  2.1 °C 34.0 °F /  1.1 °C 29.81 in /  1009.4 hPa Calm   -999.0 mph /  -1607.7 km/h 93 % 0.00 in /  0 mm 0 W/m2
21:01 35.8 °F /  2.1 °C 34.0 °F /  1.1 °C 29.81 in /  1009.4 hPa Calm   -999.0 mph /  -1607.7 km/h 93 % 0.00 in /  0 mm 0 W/m2
21:06 35.8 °F /  2.1 °C 34.0 °F /  1.1 °C 29.81 in /  1009.4 hPa Calm   -999.0 mph /  -1607.7 km/h 93 % 0.00 in /  0 mm 0 W/m2
21:11 35.9 °F /  2.2 °C 34.1 °F /  1.2 °C 29.81 in /  1009.4 hPa SE 1.0 mph /  1.6 km/h -999.0 mph /  -1607.7 km/h 93 % 0.00 in /  0 mm 0 W/m2
21:16 35.9 °F /  2.2 °C 34.1 °F /  1.2 °C 29.81 in /  1009.4 hPa SE 1.0 mph /  1.6 km/h -999.0 mph /  -1607.7 km/h 93 % 0.00 in /  0 mm 0 W/m2
21:21 35.9 °F /  2.2 °C 34.1 °F /  1.2 °C 29.81 in /  1009.4 hPa SE 1.0 mph /  1.6 km/h -999.0 mph /  -1607.7 km/h 93 % 0.00 in /  0 mm 0 W/m2
21:26 36.4 °F /  2.4 °C 34.3 °F /  1.3 °C 29.81 in /  1009.4 hPa South 1.0 mph /  1.6 km/h -999.0 mph /  -1607.7 km/h 92 % 0.00 in /  0 mm 0 W/m2
21:31 36.4 °F /  2.4 °C 34.3 °F /  1.3 °C 29.81 in /  1009.4 hPa South 1.0 mph /  1.6 km/h -999.0 mph /  -1607.7 km/h 92 % 0.00 in /  0 mm 0 W/m2
21:36 36.4 °F /  2.4 °C 34.3 °F /  1.3 °C 29.81 in /  1009.4 hPa South 1.0 mph /  1.6 km/h -999.0 mph /  -1607.7 km/h 92 % 0.00 in /  0 mm 0 W/m2
21:41 36.4 °F /  2.4 °C 34.3 °F /  1.3 °C 29.81 in /  1009.4 hPa Calm   -999.0 mph /  -1607.7 km/h 92 % 0.00 in /  0 mm 0 W/m2
21:46 36.4 °F /  2.4 °C 34.3 °F /  1.3 °C 29.81 in /  1009.4 hPa Calm   -999.0 mph /  -1607.7 km/h 92 % 0.00 in /  0 mm 0 W/m2
21:51 36.4 °F /  2.4 °C 34.3 °F /  1.3 °C 29.81 in /  1009.4 hPa Calm   -999.0 mph /  -1607.7 km/h 92 % 0.00 in /  0 mm 0 W/m2
21:56 36.4 °F /  2.4 °C 34.6 °F /  1.4 °C 29.81 in /  1009.4 hPa South 1.0 mph /  1.6 km/h -999.0 mph /  -1607.7 km/h 93 % 0.00 in /  0 mm 0 W/m2
22:01 36.4 °F /  2.4 °C 34.6 °F /  1.4 °C 29.81 in /  1009.4 hPa South 1.0 mph /  1.6 km/h -999.0 mph /  -1607.7 km/h 93 % 0.00 in /  0 mm 0 W/m2
22:06 36.4 °F /  2.4 °C 34.6 °F /  1.4 °C 29.81 in /  1009.4 hPa South 1.0 mph /  1.6 km/h -999.0 mph /  -1607.7 km/h 93 % 0.00 in /  0 mm 0 W/m2
22:11 36.9 °F /  2.7 °C 34.8 °F /  1.6 °C 29.81 in /  1009.4 hPa SSW 4.0 mph /  6.4 km/h -999.0 mph /  -1607.7 km/h 92 % 0.00 in /  0 mm 0 W/m2
22:16 36.9 °F /  2.7 °C 34.8 °F /  1.6 °C 29.81 in /  1009.4 hPa SSW 4.0 mph /  6.4 km/h -999.0 mph /  -1607.7 km/h 92 % 0.00 in /  0 mm 0 W/m2
22:21 36.9 °F /  2.7 °C 34.8 °F /  1.6 °C 29.81 in /  1009.4 hPa SSW 4.0 mph /  6.4 km/h -999.0 mph /  -1607.7 km/h 92 % 0.00 in /  0 mm 0 W/m2
22:26 37.1 °F /  2.8 °C 34.7 °F /  1.5 °C 29.81 in /  1009.4 hPa SW 4.0 mph /  6.4 km/h -999.0 mph /  -1607.7 km/h 91 % 0.00 in /  0 mm 0 W/m2
22:31 37.1 °F /  2.8 °C 34.7 °F /  1.5 °C 29.81 in /  1009.4 hPa SW 4.0 mph /  6.4 km/h -999.0 mph /  -1607.7 km/h 91 % 0.00 in /  0 mm 0 W/m2
22:36 37.1 °F /  2.8 °C 34.7 °F /  1.5 °C 29.81 in /  1009.4 hPa SW 4.0 mph /  6.4 km/h -999.0 mph /  -1607.7 km/h 91 % 0.00 in /  0 mm 0 W/m2
22:41 36.8 °F /  2.7 °C 34.4 °F /  1.3 °C 29.82 in /  1009.7 hPa SW 3.0 mph /  4.8 km/h -999.0 mph /  -1607.7 km/h 91 % 0.00 in /  0 mm 0 W/m2
22:46 36.8 °F /  2.7 °C 34.4 °F /  1.3 °C 29.82 in /  1009.7 hPa SW 3.0 mph /  4.8 km/h -999.0 mph /  -1607.7 km/h 91 % 0.00 in /  0 mm 0 W/m2
22:51 36.8 °F /  2.7 °C 34.4 °F /  1.3 °C 29.82 in /  1009.7 hPa SW 3.0 mph /  4.8 km/h -999.0 mph /  -1607.7 km/h 91 % 0.00 in /  0 mm 0 W/m2
22:56 36.7 °F /  2.6 °C 34.6 °F /  1.4 °C 29.82 in /  1009.7 hPa SW 3.0 mph /  4.8 km/h -999.0 mph /  -1607.7 km/h 92 % 0.00 in /  0 mm 0 W/m2
23:01 36.7 °F /  2.6 °C 34.6 °F /  1.4 °C 29.82 in /  1009.7 hPa SW 3.0 mph /  4.8 km/h -999.0 mph /  -1607.7 km/h 92 % 0.00 in /  0 mm 0 W/m2
23:06 36.7 °F /  2.6 °C 34.6 °F /  1.4 °C 29.82 in /  1009.7 hPa SW 3.0 mph /  4.8 km/h -999.0 mph /  -1607.7 km/h 92 % 0.00 in /  0 mm 0 W/m2
23:11 37.0 °F /  2.8 °C 34.6 °F /  1.4 °C 29.82 in /  1009.7 hPa SW 2.0 mph /  3.2 km/h -999.0 mph /  -1607.7 km/h 91 % 0.00 in /  0 mm 0 W/m2
23:16 37.0 °F /  2.8 °C 34.6 °F /  1.4 °C 29.82 in /  1009.7 hPa SW 2.0 mph /  3.2 km/h -999.0 mph /  -1607.7 km/h 91 % 0.00 in /  0 mm 0 W/m2
23:21 37.0 °F /  2.8 °C 34.6 °F /  1.4 °C 29.82 in /  1009.7 hPa SW 2.0 mph /  3.2 km/h -999.0 mph /  -1607.7 km/h 91 % 0.00 in /  0 mm 0 W/m2
23:26 37.2 °F /  2.9 °C 34.8 °F /  1.6 °C 29.82 in /  1009.7 hPa WSW 3.0 mph /  4.8 km/h -999.0 mph /  -1607.7 km/h 91 % 0.00 in /  0 mm 0 W/m2
23:31 37.2 °F /  2.9 °C 34.8 °F /  1.6 °C 29.82 in /  1009.7 hPa WSW 3.0 mph /  4.8 km/h -999.0 mph /  -1607.7 km/h 91 % 0.00 in /  0 mm 0 W/m2
23:36 37.2 °F /  2.9 °C 34.8 °F /  1.6 °C 29.82 in /  1009.7 hPa WSW 3.0 mph /  4.8 km/h -999.0 mph /  -1607.7 km/h 91 % 0.00 in /  0 mm 0 W/m2
23:41 37.3 °F /  2.9 °C 34.9 °F /  1.6 °C 29.82 in /  1009.7 hPa SW 1.0 mph /  1.6 km/h -999.0 mph /  -1607.7 km/h 91 % 0.00 in /  0 mm 0 W/m2
23:46 37.3 °F /  2.9 °C 34.9 °F /  1.6 °C 29.82 in /  1009.7 hPa SW 1.0 mph /  1.6 km/h -999.0 mph /  -1607.7 km/h 91 % 0.00 in /  0 mm 0 W/m2
23:51 37.3 °F /  2.9 °C 34.9 °F /  1.6 °C 29.82 in /  1009.7 hPa SW 1.0 mph /  1.6 km/h -999.0 mph /  -1607.7 km/h 91 % 0.00 in /  0 mm 0 W/m2
23:56 37.1 °F /  2.8 °C 34.7 °F /  1.5 °C 29.82 in /  1009.7 hPa SW 1.0 mph /  1.6 km/h -999.0 mph /  -1607.7 km/h 91 % 0.00 in /  0 mm 0 W/m2
Delerius-Weather
Compliments of Weather Underground - 2.25 mb

Data updates at regular intervals.